SKX2213 SPTU-SPJC
Flight info
| Callsign | SKX2213 |
|---|---|
| Flight time | 1h 40m |
| Altitude | 38000 |
| Route | PUMSA UT332 UDENI UT321 PEROV PEROV6 |
| Aircraft | A20N/M-SD3/L |
Departure
| Time | 2026-04-27 01:59 |
|---|---|
| Airport | Padre Aldamiz International Airport (SPTU) |
Arrival
| Time | 2026-04-27 03:40 |
|---|---|
| Airport | Jorge Chávez International Airport (SPJC) |
| Time | Latitude | Longitude | Altitude | Speed | Heading |
|---|---|---|---|---|---|
| 2026-04-27 01:45 | -12.60328 | -69.22213 | 706 ft | 0 kts | 118° |
| 2026-04-27 01:52 | -12.60316 | -69.22235 | 706 ft | 3 kts | 118° |
| 2026-04-27 01:52 | -12.60311 | -69.22259 | 706 ft | 3 kts | 76° |
| 2026-04-27 01:52 | -12.60326 | -69.22279 | 706 ft | 3 kts | 25° |
| 2026-04-27 01:52 | -12.60333 | -69.22281 | 707 ft | 0 kts | 12° |
| 2026-04-27 01:53 | -12.60329 | -69.22280 | 706 ft | 3 kts | 4° |
| 2026-04-27 01:53 | -12.60304 | -69.22330 | 707 ft | 16 kts | 275° |
| 2026-04-27 01:54 | -12.60297 | -69.22492 | 708 ft | 27 kts | 271° |
| 2026-04-27 01:54 | -12.60291 | -69.22696 | 709 ft | 27 kts | 272° |
| 2026-04-27 01:54 | -12.60314 | -69.22813 | 709 ft | 14 kts | 218° |
| 2026-04-27 01:54 | -12.60423 | -69.22830 | 710 ft | 18 kts | 182° |
| 2026-04-27 01:55 | -12.60590 | -69.22836 | 712 ft | 28 kts | 182° |
| 2026-04-27 01:55 | -12.60811 | -69.22847 | 714 ft | 34 kts | 183° |
| 2026-04-27 01:55 | -12.61062 | -69.22855 | 717 ft | 36 kts | 181° |
| 2026-04-27 01:55 | -12.61317 | -69.22867 | 718 ft | 36 kts | 182° |
| 2026-04-27 01:56 | -12.61836 | -69.22887 | 718 ft | 38 kts | 182° |
| 2026-04-27 01:56 | -12.62108 | -69.22899 | 718 ft | 38 kts | 182° |
| 2026-04-27 01:56 | -12.62359 | -69.22910 | 718 ft | 32 kts | 182° |
| 2026-04-27 01:57 | -12.62576 | -69.22917 | 719 ft | 29 kts | 182° |
| 2026-04-27 01:57 | -12.62764 | -69.22926 | 721 ft | 24 kts | 183° |
| 2026-04-27 01:57 | -12.62903 | -69.22930 | 722 ft | 6 kts | 155° |
| 2026-04-27 01:57 | -12.62919 | -69.22920 | 723 ft | 0 kts | 215° |
| 2026-04-27 01:58 | -12.62917 | -69.22926 | 723 ft | 3 kts | 312° |
| 2026-04-27 01:58 | -12.62891 | -69.22932 | 722 ft | 0 kts | 5° |
| 2026-04-27 01:58 | -12.62885 | -69.22931 | 722 ft | 7 kts | 5° |
| 2026-04-27 01:58 | -12.62571 | -69.22917 | 720 ft | 80 kts | 2° |
| 2026-04-27 01:59 | -12.61797 | -69.22887 | 719 ft | 139 kts | 2° |
| 2026-04-27 01:59 | -12.60675 | -69.22839 | 870 ft | 171 kts | 2° |
| 2026-04-27 01:59 | -12.59449 | -69.22784 | 1311 ft | 180 kts | 2° |
| 2026-04-27 01:59 | -12.58186 | -69.22735 | 1864 ft | 186 kts | 2° |
| 2026-04-27 02:00 | -12.56895 | -69.22761 | 2450 ft | 187 kts | 349° |
| 2026-04-27 02:00 | -12.55761 | -69.23415 | 2773 ft | 195 kts | 304° |
| 2026-04-27 02:00 | -12.55392 | -69.24767 | 3066 ft | 208 kts | 267° |
| 2026-04-27 02:00 | -12.55728 | -69.26215 | 3487 ft | 216 kts | 238° |
| 2026-04-27 02:01 | -12.56804 | -69.27297 | 3889 ft | 225 kts | 207° |
| 2026-04-27 02:01 | -12.58355 | -69.27660 | 4300 ft | 233 kts | 178° |
| 2026-04-27 02:01 | -12.60028 | -69.27596 | 4686 ft | 246 kts | 184° |
| 2026-04-27 02:01 | -12.61659 | -69.28168 | 4984 ft | 260 kts | 219° |
| 2026-04-27 02:02 | -12.62714 | -69.29695 | 5361 ft | 270 kts | 253° |
| 2026-04-27 02:02 | -12.63234 | -69.31587 | 5792 ft | 281 kts | 254° |
| 2026-04-27 02:02 | -12.63806 | -69.33543 | 6185 ft | 293 kts | 253° |
| 2026-04-27 02:02 | -12.64471 | -69.35516 | 6763 ft | 298 kts | 248° |
| 2026-04-27 02:03 | -12.65321 | -69.37425 | 7583 ft | 293 kts | 244° |
| 2026-04-27 02:03 | -12.66229 | -69.39259 | 8248 ft | 293 kts | 243° |
| 2026-04-27 02:03 | -12.67176 | -69.41129 | 8842 ft | 295 kts | 243° |
| 2026-04-27 02:03 | -12.68120 | -69.42994 | 9395 ft | 298 kts | 243° |
| 2026-04-27 02:04 | -12.69071 | -69.44876 | 9929 ft | 301 kts | 243° |
| 2026-04-27 02:04 | -12.70042 | -69.46802 | 10312 ft | 310 kts | 243° |
| 2026-04-27 02:04 | -12.71044 | -69.48795 | 10560 ft | 324 kts | 243° |
| 2026-04-27 02:04 | -12.72095 | -69.50888 | 10814 ft | 338 kts | 243° |
| 2026-04-27 02:05 | -12.73188 | -69.53065 | 11227 ft | 345 kts | 243° |
| 2026-04-27 02:05 | -12.74288 | -69.55257 | 11772 ft | 348 kts | 243° |
| 2026-04-27 02:05 | -12.75392 | -69.57456 | 12316 ft | 350 kts | 243° |
| 2026-04-27 02:05 | -12.76511 | -69.59688 | 12838 ft | 352 kts | 243° |
| 2026-04-27 02:06 | -12.77631 | -69.61923 | 13340 ft | 355 kts | 243° |
| 2026-04-27 02:06 | -12.78757 | -69.64170 | 13818 ft | 356 kts | 243° |
| 2026-04-27 02:06 | -12.79893 | -69.66436 | 14260 ft | 360 kts | 243° |
| 2026-04-27 02:06 | -12.81041 | -69.68732 | 14715 ft | 363 kts | 243° |
| 2026-04-27 02:07 | -12.82186 | -69.71020 | 15169 ft | 366 kts | 243° |
| 2026-04-27 02:07 | -12.83269 | -69.73389 | 15606 ft | 369 kts | 251° |
| 2026-04-27 02:07 | -12.83891 | -69.75938 | 16055 ft | 371 kts | 263° |
| 2026-04-27 02:07 | -12.83998 | -69.78584 | 16489 ft | 372 kts | 272° |
| 2026-04-27 02:08 | -12.83878 | -69.81244 | 16900 ft | 376 kts | 274° |
| 2026-04-27 02:08 | -12.83729 | -69.83899 | 17307 ft | 379 kts | 274° |
| 2026-04-27 02:08 | -12.83579 | -69.86608 | 17722 ft | 382 kts | 273° |
| 2026-04-27 02:08 | -12.83435 | -69.89338 | 18118 ft | 384 kts | 273° |
| 2026-04-27 02:09 | -12.83294 | -69.92086 | 18517 ft | 387 kts | 273° |
| 2026-04-27 02:09 | -12.83156 | -69.94841 | 18917 ft | 390 kts | 273° |
| 2026-04-27 02:09 | -12.83017 | -69.97649 | 19316 ft | 392 kts | 273° |
| 2026-04-27 02:09 | -12.82881 | -70.00423 | 19708 ft | 394 kts | 273° |
| 2026-04-27 02:10 | -12.82744 | -70.03214 | 20095 ft | 396 kts | 272° |
| 2026-04-27 02:10 | -12.82607 | -70.06026 | 20481 ft | 397 kts | 272° |
| 2026-04-27 02:10 | -12.82470 | -70.08856 | 20851 ft | 399 kts | 272° |
| 2026-04-27 02:10 | -12.82333 | -70.11706 | 21226 ft | 401 kts | 272° |
| 2026-04-27 02:11 | -12.82196 | -70.14552 | 21592 ft | 403 kts | 272° |
| 2026-04-27 02:11 | -12.82056 | -70.17419 | 21952 ft | 405 kts | 272° |
| 2026-04-27 02:11 | -12.81915 | -70.20304 | 22299 ft | 407 kts | 272° |
| 2026-04-27 02:11 | -12.81773 | -70.23198 | 22640 ft | 408 kts | 272° |
| 2026-04-27 02:12 | -12.81630 | -70.26109 | 22982 ft | 410 kts | 272° |
| 2026-04-27 02:12 | -12.81487 | -70.29009 | 23319 ft | 411 kts | 272° |
| 2026-04-27 02:12 | -12.81343 | -70.31918 | 23679 ft | 412 kts | 272° |
| 2026-04-27 02:12 | -12.81198 | -70.34850 | 24035 ft | 414 kts | 272° |
| 2026-04-27 02:13 | -12.81052 | -70.37785 | 24382 ft | 416 kts | 272° |
| 2026-04-27 02:13 | -12.80904 | -70.40755 | 24727 ft | 418 kts | 272° |
| 2026-04-27 02:13 | -12.80756 | -70.43729 | 25070 ft | 419 kts | 272° |
| 2026-04-27 02:13 | -12.80607 | -70.46712 | 25408 ft | 421 kts | 272° |
| 2026-04-27 02:14 | -12.80457 | -70.49700 | 25742 ft | 423 kts | 272° |
| 2026-04-27 02:14 | -12.80306 | -70.52715 | 26074 ft | 425 kts | 272° |
| 2026-04-27 02:14 | -12.80153 | -70.55747 | 26402 ft | 426 kts | 272° |
| 2026-04-27 02:14 | -12.80001 | -70.58749 | 26718 ft | 428 kts | 272° |
| 2026-04-27 02:15 | -12.79847 | -70.61798 | 27035 ft | 430 kts | 272° |
| 2026-04-27 02:15 | -12.79692 | -70.64844 | 27347 ft | 431 kts | 272° |
| 2026-04-27 02:15 | -12.79534 | -70.67940 | 27661 ft | 433 kts | 272° |
| 2026-04-27 02:15 | -12.79378 | -70.71010 | 27975 ft | 434 kts | 273° |
| 2026-04-27 02:16 | -12.79220 | -70.74086 | 28300 ft | 436 kts | 273° |
| 2026-04-27 02:16 | -12.79060 | -70.77208 | 28629 ft | 438 kts | 273° |
| 2026-04-27 02:16 | -12.78902 | -70.80290 | 28939 ft | 440 kts | 273° |
| 2026-04-27 02:16 | -12.78740 | -70.83438 | 29251 ft | 441 kts | 273° |
| 2026-04-27 02:17 | -12.78579 | -70.86554 | 29562 ft | 443 kts | 273° |
| 2026-04-27 02:17 | -12.78415 | -70.89727 | 29875 ft | 444 kts | 273° |
| 2026-04-27 02:17 | -12.78252 | -70.92860 | 30181 ft | 446 kts | 273° |
| 2026-04-27 02:17 | -12.78088 | -70.96018 | 30495 ft | 447 kts | 273° |
| 2026-04-27 02:18 | -12.77923 | -70.99176 | 30877 ft | 446 kts | 273° |
| 2026-04-27 02:18 | -12.77758 | -71.02352 | 31277 ft | 445 kts | 273° |
| 2026-04-27 02:18 | -12.77592 | -71.05523 | 31672 ft | 444 kts | 273° |
| 2026-04-27 02:18 | -12.77428 | -71.08651 | 32062 ft | 443 kts | 273° |
| 2026-04-27 02:19 | -12.77263 | -71.11790 | 32455 ft | 442 kts | 273° |
| 2026-04-27 02:19 | -12.77098 | -71.14925 | 32845 ft | 441 kts | 273° |
| 2026-04-27 02:19 | -12.76933 | -71.18050 | 33237 ft | 440 kts | 273° |
| 2026-04-27 02:19 | -12.76767 | -71.21190 | 33621 ft | 438 kts | 273° |
| 2026-04-27 02:20 | -12.76605 | -71.24256 | 33974 ft | 437 kts | 274° |
| 2026-04-27 02:20 | -12.76440 | -71.27377 | 34333 ft | 437 kts | 274° |
| 2026-04-27 02:20 | -12.76275 | -71.30460 | 34681 ft | 435 kts | 274° |
| 2026-04-27 02:20 | -12.76109 | -71.33558 | 35025 ft | 434 kts | 274° |
| 2026-04-27 02:21 | -12.75948 | -71.36599 | 35358 ft | 432 kts | 274° |
| 2026-04-27 02:21 | -12.75782 | -71.39696 | 35685 ft | 431 kts | 274° |
| 2026-04-27 02:21 | -12.75618 | -71.42758 | 35990 ft | 430 kts | 274° |
| 2026-04-27 02:21 | -12.75455 | -71.45786 | 36276 ft | 429 kts | 274° |
| 2026-04-27 02:22 | -12.75291 | -71.48837 | 36554 ft | 428 kts | 274° |
| 2026-04-27 02:22 | -12.75127 | -71.51864 | 36825 ft | 427 kts | 274° |
| 2026-04-27 02:22 | -12.74963 | -71.54887 | 37076 ft | 427 kts | 274° |
| 2026-04-27 02:22 | -12.74798 | -71.57907 | 37314 ft | 426 kts | 274° |
| 2026-04-27 02:23 | -12.74631 | -71.60967 | 37543 ft | 425 kts | 274° |
| 2026-04-27 02:23 | -12.74467 | -71.63983 | 37761 ft | 424 kts | 274° |
| 2026-04-27 02:23 | -12.74301 | -71.67011 | 37978 ft | 424 kts | 275° |
| 2026-04-27 02:23 | -12.74136 | -71.70018 | 38196 ft | 423 kts | 275° |
| 2026-04-27 02:24 | -12.73969 | -71.73045 | 38406 ft | 422 kts | 275° |
| 2026-04-27 02:24 | -12.73806 | -71.76022 | 38596 ft | 422 kts | 275° |
| 2026-04-27 02:24 | -12.73639 | -71.79043 | 38771 ft | 422 kts | 275° |
| 2026-04-27 02:24 | -12.73475 | -71.82018 | 38923 ft | 422 kts | 275° |
| 2026-04-27 02:25 | -12.73142 | -71.88030 | 38953 ft | 423 kts | 275° |
| 2026-04-27 02:25 | -12.72810 | -71.94006 | 38819 ft | 422 kts | 275° |
| 2026-04-27 02:26 | -12.72474 | -72.00004 | 38699 ft | 422 kts | 275° |
| 2026-04-27 02:26 | -12.72137 | -72.05997 | 38562 ft | 422 kts | 275° |
| 2026-04-27 02:27 | -12.71799 | -72.11970 | 38473 ft | 422 kts | 275° |
| 2026-04-27 02:27 | -12.71461 | -72.17934 | 38426 ft | 422 kts | 275° |
| 2026-04-27 02:28 | -12.71119 | -72.23948 | 38369 ft | 423 kts | 275° |
| 2026-04-27 02:28 | -12.70777 | -72.29958 | 38302 ft | 423 kts | 275° |
| 2026-04-27 02:29 | -12.70434 | -72.35924 | 38220 ft | 423 kts | 275° |
| 2026-04-27 02:29 | -12.70090 | -72.41946 | 38126 ft | 423 kts | 275° |
| 2026-04-27 02:30 | -12.69748 | -72.47928 | 38036 ft | 423 kts | 275° |
| 2026-04-27 02:30 | -12.69400 | -72.53941 | 37953 ft | 424 kts | 275° |
| 2026-04-27 02:31 | -12.69052 | -72.59937 | 37887 ft | 424 kts | 275° |
| 2026-04-27 02:31 | -12.68700 | -72.65967 | 37839 ft | 424 kts | 275° |
| 2026-04-27 02:32 | -12.68345 | -72.72028 | 37798 ft | 424 kts | 275° |
| 2026-04-27 02:32 | -12.67990 | -72.78040 | 37777 ft | 424 kts | 275° |
| 2026-04-27 02:33 | -12.67634 | -72.84034 | 37773 ft | 424 kts | 275° |
| 2026-04-27 02:33 | -12.67277 | -72.90055 | 37761 ft | 424 kts | 275° |
| 2026-04-27 02:34 | -12.66918 | -72.96077 | 37718 ft | 424 kts | 275° |
| 2026-04-27 02:34 | -12.66560 | -73.02066 | 37668 ft | 424 kts | 275° |
| 2026-04-27 02:35 | -12.66200 | -73.08070 | 37627 ft | 424 kts | 275° |
| 2026-04-27 02:35 | -12.65837 | -73.14107 | 37594 ft | 424 kts | 275° |
| 2026-04-27 02:36 | -12.65472 | -73.20129 | 37575 ft | 424 kts | 275° |
| 2026-04-27 02:36 | -12.65108 | -73.26144 | 37566 ft | 425 kts | 275° |
| 2026-04-27 02:37 | -12.64742 | -73.32166 | 37578 ft | 424 kts | 275° |
| 2026-04-27 02:37 | -12.64377 | -73.38137 | 37624 ft | 424 kts | 275° |
| 2026-04-27 02:38 | -12.64009 | -73.44149 | 37695 ft | 424 kts | 275° |
| 2026-04-27 02:38 | -12.63637 | -73.50179 | 37802 ft | 424 kts | 275° |
| 2026-04-27 02:39 | -12.63264 | -73.56202 | 37864 ft | 424 kts | 275° |
| 2026-04-27 02:39 | -12.62894 | -73.62173 | 37870 ft | 424 kts | 275° |
| 2026-04-27 02:40 | -12.62519 | -73.68218 | 37863 ft | 423 kts | 275° |
| 2026-04-27 02:40 | -12.62144 | -73.74216 | 37821 ft | 422 kts | 275° |
| 2026-04-27 02:41 | -12.61771 | -73.80178 | 37802 ft | 422 kts | 275° |
| 2026-04-27 02:41 | -12.61396 | -73.86150 | 37851 ft | 422 kts | 275° |
| 2026-04-27 02:42 | -12.61019 | -73.92117 | 37933 ft | 422 kts | 275° |
| 2026-04-27 02:42 | -12.60637 | -73.98126 | 38058 ft | 422 kts | 275° |
| 2026-04-27 02:43 | -12.60256 | -74.04105 | 38180 ft | 422 kts | 275° |
| 2026-04-27 02:43 | -12.59875 | -74.10064 | 38295 ft | 421 kts | 275° |
| 2026-04-27 02:44 | -12.59493 | -74.16024 | 38405 ft | 420 kts | 275° |
| 2026-04-27 02:44 | -12.59108 | -74.22006 | 38510 ft | 420 kts | 275° |
| 2026-04-27 02:45 | -12.58725 | -74.27945 | 38613 ft | 419 kts | 275° |
| 2026-04-27 02:45 | -12.58340 | -74.33877 | 38638 ft | 419 kts | 275° |
| 2026-04-27 02:46 | -12.57954 | -74.39816 | 38631 ft | 419 kts | 275° |
| 2026-04-27 02:46 | -12.57569 | -74.45722 | 38600 ft | 418 kts | 275° |
| 2026-04-27 02:47 | -12.57181 | -74.51660 | 38588 ft | 418 kts | 275° |
| 2026-04-27 02:47 | -12.56793 | -74.57568 | 38588 ft | 419 kts | 275° |
| 2026-04-27 02:48 | -12.56400 | -74.63541 | 38584 ft | 419 kts | 275° |
| 2026-04-27 02:48 | -12.56006 | -74.69501 | 38580 ft | 419 kts | 275° |
| 2026-04-27 02:49 | -12.55612 | -74.75452 | 38568 ft | 420 kts | 275° |
| 2026-04-27 02:49 | -12.55213 | -74.81437 | 38552 ft | 420 kts | 275° |
| 2026-04-27 02:50 | -12.54816 | -74.87367 | 38532 ft | 423 kts | 275° |
| 2026-04-27 02:50 | -12.54411 | -74.93394 | 38499 ft | 430 kts | 275° |
| 2026-04-27 02:51 | -12.53998 | -74.99548 | 38454 ft | 435 kts | 275° |
| 2026-04-27 02:51 | -12.53580 | -75.05763 | 38442 ft | 439 kts | 275° |
| 2026-04-27 02:52 | -12.53161 | -75.11971 | 38494 ft | 441 kts | 275° |
| 2026-04-27 02:52 | -12.52739 | -75.18213 | 38567 ft | 435 kts | 275° |
| 2026-04-27 02:53 | -12.52534 | -75.21247 | 38378 ft | 426 kts | 275° |
| 2026-04-27 02:53 | -12.52321 | -75.24236 | 38181 ft | 417 kts | 276° |
| 2026-04-27 02:53 | -12.51986 | -75.27167 | 37949 ft | 412 kts | 279° |
| 2026-04-27 02:53 | -12.51502 | -75.30037 | 37706 ft | 409 kts | 282° |
| 2026-04-27 02:54 | -12.50893 | -75.32839 | 37467 ft | 408 kts | 284° |
| 2026-04-27 02:54 | -12.50249 | -75.35664 | 37224 ft | 407 kts | 284° |
| 2026-04-27 02:54 | -12.49603 | -75.38495 | 36945 ft | 408 kts | 284° |
| 2026-04-27 02:54 | -12.48960 | -75.41311 | 36660 ft | 408 kts | 284° |
| 2026-04-27 02:55 | -12.48314 | -75.44147 | 36372 ft | 409 kts | 284° |
| 2026-04-27 02:55 | -12.47674 | -75.46958 | 36089 ft | 410 kts | 284° |
| 2026-04-27 02:55 | -12.47030 | -75.49786 | 35803 ft | 411 kts | 284° |
| 2026-04-27 02:55 | -12.46372 | -75.52673 | 35512 ft | 411 kts | 284° |
| 2026-04-27 02:56 | -12.45728 | -75.55500 | 35228 ft | 412 kts | 284° |
| 2026-04-27 02:56 | -12.45078 | -75.58350 | 34936 ft | 413 kts | 284° |
| 2026-04-27 02:56 | -12.44427 | -75.61208 | 34584 ft | 414 kts | 284° |
| 2026-04-27 02:56 | -12.43766 | -75.64104 | 34134 ft | 416 kts | 284° |
| 2026-04-27 02:57 | -12.43109 | -75.66985 | 33567 ft | 417 kts | 285° |
| 2026-04-27 02:57 | -12.42451 | -75.69863 | 32935 ft | 419 kts | 285° |
| 2026-04-27 02:57 | -12.41787 | -75.72768 | 32212 ft | 422 kts | 285° |
| 2026-04-27 02:57 | -12.41130 | -75.75642 | 31512 ft | 423 kts | 285° |
| 2026-04-27 02:58 | -12.40461 | -75.78567 | 30806 ft | 424 kts | 285° |
| 2026-04-27 02:58 | -12.39790 | -75.81496 | 30106 ft | 424 kts | 285° |
| 2026-04-27 02:58 | -12.39117 | -75.84439 | 29391 ft | 425 kts | 285° |
| 2026-04-27 02:58 | -12.38443 | -75.87377 | 28855 ft | 420 kts | 285° |
| 2026-04-27 02:59 | -12.37781 | -75.90261 | 28359 ft | 415 kts | 284° |
| 2026-04-27 02:59 | -12.37131 | -75.93099 | 27861 ft | 411 kts | 284° |
| 2026-04-27 02:59 | -12.36488 | -75.95905 | 27397 ft | 408 kts | 284° |
| 2026-04-27 02:59 | -12.35840 | -75.98736 | 26943 ft | 405 kts | 284° |
| 2026-04-27 03:00 | -12.35200 | -76.01526 | 26504 ft | 402 kts | 284° |
| 2026-04-27 03:00 | -12.34565 | -76.04298 | 26009 ft | 401 kts | 283° |
| 2026-04-27 03:00 | -12.33959 | -76.07063 | 25474 ft | 401 kts | 283° |
| 2026-04-27 03:00 | -12.33363 | -76.09838 | 24919 ft | 403 kts | 283° |
| 2026-04-27 03:01 | -12.32762 | -76.12648 | 24348 ft | 404 kts | 283° |
| 2026-04-27 03:01 | -12.32167 | -76.15418 | 23767 ft | 405 kts | 283° |
| 2026-04-27 03:01 | -12.31554 | -76.18261 | 23191 ft | 406 kts | 283° |
| 2026-04-27 03:01 | -12.30954 | -76.21039 | 22690 ft | 406 kts | 283° |
| 2026-04-27 03:02 | -12.30344 | -76.23856 | 22226 ft | 406 kts | 282° |
| 2026-04-27 03:02 | -12.29734 | -76.26684 | 21796 ft | 407 kts | 282° |
| 2026-04-27 03:02 | -12.29135 | -76.29469 | 21301 ft | 407 kts | 282° |
| 2026-04-27 03:02 | -12.28530 | -76.32288 | 20801 ft | 406 kts | 282° |
| 2026-04-27 03:03 | -12.27923 | -76.35117 | 20318 ft | 403 kts | 282° |
| 2026-04-27 03:03 | -12.26734 | -76.40651 | 19403 ft | 397 kts | 282° |
| 2026-04-27 03:03 | -12.26144 | -76.43390 | 18959 ft | 392 kts | 282° |
| 2026-04-27 03:04 | -12.25565 | -76.46079 | 18521 ft | 389 kts | 282° |
| 2026-04-27 03:04 | -12.24980 | -76.48782 | 18080 ft | 385 kts | 282° |
| 2026-04-27 03:04 | -12.24407 | -76.51428 | 17655 ft | 382 kts | 282° |
| 2026-04-27 03:04 | -12.23842 | -76.54036 | 17235 ft | 378 kts | 282° |
| 2026-04-27 03:05 | -12.23278 | -76.56642 | 16906 ft | 370 kts | 282° |
| 2026-04-27 03:05 | -12.22729 | -76.59170 | 16743 ft | 357 kts | 282° |
| 2026-04-27 03:05 | -12.22203 | -76.61592 | 16619 ft | 342 kts | 282° |
| 2026-04-27 03:05 | -12.21698 | -76.63922 | 16495 ft | 330 kts | 282° |
| 2026-04-27 03:06 | -12.21209 | -76.66166 | 16230 ft | 324 kts | 282° |
| 2026-04-27 03:06 | -12.20715 | -76.68420 | 15883 ft | 320 kts | 283° |
| 2026-04-27 03:06 | -12.20232 | -76.70621 | 15553 ft | 317 kts | 283° |
| 2026-04-27 03:06 | -12.19756 | -76.72787 | 15177 ft | 314 kts | 283° |
| 2026-04-27 03:07 | -12.19284 | -76.74940 | 14787 ft | 308 kts | 283° |
| 2026-04-27 03:07 | -12.18811 | -76.77099 | 14512 ft | 311 kts | 283° |
| 2026-04-27 03:07 | -12.18334 | -76.79270 | 14210 ft | 310 kts | 283° |
| 2026-04-27 03:07 | -12.17864 | -76.81416 | 13900 ft | 308 kts | 283° |
| 2026-04-27 03:08 | -12.17398 | -76.83532 | 13587 ft | 307 kts | 283° |
| 2026-04-27 03:08 | -12.16928 | -76.85670 | 13267 ft | 305 kts | 283° |
| 2026-04-27 03:08 | -12.16465 | -76.87772 | 12947 ft | 304 kts | 283° |
| 2026-04-27 03:08 | -12.15995 | -76.89911 | 12637 ft | 302 kts | 283° |
| 2026-04-27 03:09 | -12.15533 | -76.92013 | 12331 ft | 300 kts | 283° |
| 2026-04-27 03:09 | -12.15068 | -76.94130 | 12001 ft | 298 kts | 283° |
| 2026-04-27 03:09 | -12.14615 | -76.96202 | 11666 ft | 297 kts | 283° |
| 2026-04-27 03:09 | -12.14160 | -76.98280 | 11322 ft | 294 kts | 283° |
| 2026-04-27 03:10 | -12.13718 | -77.00302 | 10983 ft | 292 kts | 282° |
| 2026-04-27 03:10 | -12.13273 | -77.02343 | 10638 ft | 291 kts | 282° |
| 2026-04-27 03:10 | -12.12836 | -77.04347 | 10303 ft | 289 kts | 282° |
| 2026-04-27 03:10 | -12.12399 | -77.06346 | 9982 ft | 287 kts | 283° |
| 2026-04-27 03:11 | -12.11965 | -77.08332 | 9667 ft | 285 kts | 283° |
| 2026-04-27 03:11 | -12.11529 | -77.10320 | 9356 ft | 282 kts | 283° |
| 2026-04-27 03:11 | -12.11104 | -77.12259 | 9091 ft | 278 kts | 283° |
| 2026-04-27 03:11 | -12.10687 | -77.14158 | 8865 ft | 271 kts | 283° |
| 2026-04-27 03:12 | -12.10282 | -77.16006 | 8644 ft | 264 kts | 283° |
| 2026-04-27 03:12 | -12.09858 | -77.17838 | 8424 ft | 258 kts | 289° |
| 2026-04-27 03:12 | -12.08928 | -77.19366 | 8181 ft | 252 kts | 321° |
| 2026-04-27 03:12 | -12.07386 | -77.20262 | 7912 ft | 249 kts | 336° |
| 2026-04-27 03:13 | -12.05801 | -77.20997 | 7643 ft | 248 kts | 335° |
| 2026-04-27 03:13 | -12.04224 | -77.21748 | 7376 ft | 247 kts | 335° |
| 2026-04-27 03:13 | -12.02666 | -77.22505 | 7111 ft | 245 kts | 334° |
| 2026-04-27 03:13 | -12.01137 | -77.23251 | 6848 ft | 244 kts | 335° |
| 2026-04-27 03:14 | -11.99582 | -77.23968 | 6581 ft | 243 kts | 336° |
| 2026-04-27 03:14 | -11.98036 | -77.24667 | 6318 ft | 242 kts | 336° |
| 2026-04-27 03:14 | -11.96482 | -77.25369 | 6053 ft | 241 kts | 336° |
| 2026-04-27 03:14 | -11.94957 | -77.26063 | 5793 ft | 240 kts | 336° |
| 2026-04-27 03:15 | -11.93430 | -77.26761 | 5534 ft | 239 kts | 336° |
| 2026-04-27 03:15 | -11.91912 | -77.27455 | 5277 ft | 238 kts | 335° |
| 2026-04-27 03:15 | -11.90408 | -77.28143 | 5023 ft | 237 kts | 335° |
| 2026-04-27 03:15 | -11.88897 | -77.28833 | 4768 ft | 235 kts | 335° |
| 2026-04-27 03:16 | -11.87390 | -77.29521 | 4512 ft | 234 kts | 335° |
| 2026-04-27 03:16 | -11.85909 | -77.30193 | 4255 ft | 233 kts | 338° |
| 2026-04-27 03:16 | -11.84327 | -77.30427 | 3998 ft | 230 kts | 14° |
| 2026-04-27 03:16 | -11.82922 | -77.29665 | 3879 ft | 229 kts | 47° |
| 2026-04-27 03:17 | -11.82106 | -77.28300 | 3702 ft | 229 kts | 66° |
| 2026-04-27 03:17 | -11.81463 | -77.26785 | 3522 ft | 230 kts | 66° |
| 2026-04-27 03:17 | -11.80824 | -77.25314 | 3345 ft | 223 kts | 65° |
| 2026-04-27 03:17 | -11.80350 | -77.23838 | 3149 ft | 217 kts | 90° |
| 2026-04-27 03:18 | -11.80796 | -77.22420 | 2918 ft | 211 kts | 130° |
| 2026-04-27 03:18 | -11.81892 | -77.21455 | 2708 ft | 206 kts | 148° |
| 2026-04-27 03:18 | -11.83133 | -77.20778 | 2577 ft | 195 kts | 154° |
| 2026-04-27 03:18 | -11.84319 | -77.20217 | 2348 ft | 181 kts | 155° |
| 2026-04-27 03:19 | -11.85427 | -77.19698 | 2110 ft | 170 kts | 155° |
| 2026-04-27 03:19 | -11.86462 | -77.19202 | 2004 ft | 156 kts | 154° |
| 2026-04-27 03:19 | -11.87440 | -77.18724 | 2017 ft | 157 kts | 154° |
| 2026-04-27 03:19 | -11.88435 | -77.18233 | 2007 ft | 156 kts | 154° |
| 2026-04-27 03:20 | -11.89389 | -77.17759 | 1992 ft | 145 kts | 154° |
| 2026-04-27 03:20 | -11.90275 | -77.17318 | 1988 ft | 141 kts | 154° |
| 2026-04-27 03:20 | -11.91164 | -77.16877 | 1994 ft | 140 kts | 154° |
| 2026-04-27 03:20 | -11.92048 | -77.16438 | 1957 ft | 141 kts | 154° |
| 2026-04-27 03:21 | -11.92921 | -77.16007 | 1779 ft | 140 kts | 154° |
| 2026-04-27 03:21 | -11.93794 | -77.15575 | 1603 ft | 139 kts | 154° |
| 2026-04-27 03:21 | -11.94672 | -77.15141 | 1424 ft | 138 kts | 154° |
| 2026-04-27 03:21 | -11.95542 | -77.14712 | 1246 ft | 138 kts | 154° |
| 2026-04-27 03:22 | -11.96405 | -77.14285 | 1067 ft | 137 kts | 154° |
| 2026-04-27 03:22 | -11.97256 | -77.13866 | 890 ft | 136 kts | 154° |
| 2026-04-27 03:22 | -11.98117 | -77.13441 | 712 ft | 135 kts | 155° |
| 2026-04-27 03:22 | -11.98949 | -77.13029 | 535 ft | 133 kts | 154° |
| 2026-04-27 03:23 | -11.99783 | -77.12614 | 373 ft | 130 kts | 155° |
| 2026-04-27 03:23 | -12.00607 | -77.12209 | 257 ft | 129 kts | 155° |
| 2026-04-27 03:23 | -12.01410 | -77.11820 | 241 ft | 127 kts | 156° |
| 2026-04-27 03:23 | -12.02214 | -77.11430 | 248 ft | 127 kts | 154° |
| 2026-04-27 03:24 | -12.03035 | -77.11013 | 598 ft | 134 kts | 155° |
| 2026-04-27 03:24 | -12.03851 | -77.10612 | 1250 ft | 132 kts | 155° |
| 2026-04-27 03:24 | -12.04664 | -77.10198 | 1747 ft | 134 kts | 154° |
| 2026-04-27 03:24 | -12.05556 | -77.09730 | 2008 ft | 156 kts | 154° |
| 2026-04-27 03:25 | -12.06590 | -77.09186 | 2024 ft | 175 kts | 153° |
| 2026-04-27 03:25 | -12.07804 | -77.08548 | 1923 ft | 208 kts | 153° |
| 2026-04-27 03:25 | -12.09132 | -77.07938 | 1953 ft | 213 kts | 164° |
| 2026-04-27 03:25 | -12.10628 | -77.07721 | 1981 ft | 215 kts | 181° |
| 2026-04-27 03:26 | -12.12112 | -77.07962 | 1992 ft | 217 kts | 198° |
| 2026-04-27 03:26 | -12.13474 | -77.08638 | 1996 ft | 220 kts | 214° |
| 2026-04-27 03:26 | -12.14606 | -77.09720 | 1998 ft | 222 kts | 232° |
| 2026-04-27 03:26 | -12.15364 | -77.11089 | 1998 ft | 223 kts | 249° |
| 2026-04-27 03:27 | -12.15694 | -77.12631 | 1995 ft | 225 kts | 266° |
| 2026-04-27 03:27 | -12.15556 | -77.14227 | 1993 ft | 226 kts | 283° |
| 2026-04-27 03:27 | -12.14960 | -77.15697 | 1992 ft | 227 kts | 301° |
| 2026-04-27 03:27 | -12.13937 | -77.16939 | 1992 ft | 228 kts | 319° |
| 2026-04-27 03:28 | -12.12616 | -77.17836 | 1995 ft | 228 kts | 332° |
| 2026-04-27 03:28 | -12.11164 | -77.18536 | 1993 ft | 229 kts | 335° |
| 2026-04-27 03:28 | -12.09705 | -77.19195 | 1994 ft | 229 kts | 336° |
| 2026-04-27 03:28 | -12.08258 | -77.19857 | 1994 ft | 229 kts | 335° |
| 2026-04-27 03:29 | -12.06793 | -77.20544 | 1994 ft | 229 kts | 335° |
| 2026-04-27 03:29 | -12.05348 | -77.21230 | 1994 ft | 229 kts | 334° |
| 2026-04-27 03:29 | -12.03904 | -77.21922 | 1993 ft | 229 kts | 334° |
| 2026-04-27 03:29 | -12.02447 | -77.22623 | 1993 ft | 229 kts | 334° |
| 2026-04-27 03:30 | -12.01009 | -77.23310 | 1993 ft | 229 kts | 335° |
| 2026-04-27 03:30 | -11.99540 | -77.23981 | 1992 ft | 229 kts | 336° |
| 2026-04-27 03:30 | -11.98089 | -77.24638 | 1991 ft | 228 kts | 336° |
| 2026-04-27 03:30 | -11.96627 | -77.25302 | 1990 ft | 228 kts | 336° |
| 2026-04-27 03:31 | -11.95171 | -77.25964 | 1990 ft | 227 kts | 336° |
| 2026-04-27 03:31 | -11.93722 | -77.26625 | 1989 ft | 227 kts | 335° |
| 2026-04-27 03:31 | -11.92287 | -77.27281 | 1990 ft | 227 kts | 335° |
| 2026-04-27 03:31 | -11.90825 | -77.27949 | 1990 ft | 226 kts | 335° |
| 2026-04-27 03:32 | -11.89391 | -77.28603 | 1990 ft | 226 kts | 335° |
| 2026-04-27 03:32 | -11.87930 | -77.29272 | 1990 ft | 226 kts | 335° |
| 2026-04-27 03:32 | -11.86490 | -77.29929 | 1990 ft | 226 kts | 335° |
| 2026-04-27 03:32 | -11.85048 | -77.30590 | 1990 ft | 226 kts | 335° |
| 2026-04-27 03:33 | -11.83606 | -77.31250 | 1990 ft | 226 kts | 335° |
| 2026-04-27 03:33 | -11.82144 | -77.31825 | 1981 ft | 226 kts | 350° |
| 2026-04-27 03:33 | -11.80599 | -77.31686 | 1980 ft | 224 kts | 24° |
| 2026-04-27 03:33 | -11.79393 | -77.30711 | 1984 ft | 222 kts | 58° |
| 2026-04-27 03:34 | -11.78926 | -77.29250 | 1991 ft | 220 kts | 89° |
| 2026-04-27 03:34 | -11.78931 | -77.27660 | 1995 ft | 223 kts | 94° |
| 2026-04-27 03:34 | -11.79108 | -77.26108 | 1991 ft | 223 kts | 100° |
| 2026-04-27 03:34 | -11.79489 | -77.24574 | 1990 ft | 222 kts | 109° |
| 2026-04-27 03:35 | -11.80129 | -77.23128 | 1990 ft | 221 kts | 121° |
| 2026-04-27 03:35 | -11.81114 | -77.21958 | 1987 ft | 219 kts | 143° |
| 2026-04-27 03:35 | -11.82408 | -77.21137 | 1992 ft | 220 kts | 153° |
| 2026-04-27 03:35 | -11.83804 | -77.20454 | 1993 ft | 220 kts | 155° |
| 2026-04-27 03:36 | -11.85195 | -77.19804 | 1994 ft | 220 kts | 155° |
| 2026-04-27 03:36 | -11.86604 | -77.19131 | 1993 ft | 220 kts | 155° |
| 2026-04-27 03:36 | -11.87979 | -77.18458 | 1995 ft | 220 kts | 154° |
| 2026-04-27 03:36 | -11.89339 | -77.17784 | 2060 ft | 206 kts | 154° |
| 2026-04-27 03:37 | -11.90570 | -77.17172 | 2065 ft | 183 kts | 154° |
| 2026-04-27 03:37 | -11.91644 | -77.16640 | 2032 ft | 158 kts | 154° |
| 2026-04-27 03:37 | -11.92606 | -77.16164 | 1860 ft | 152 kts | 154° |
| 2026-04-27 03:37 | -11.93527 | -77.15707 | 1649 ft | 139 kts | 154° |
| 2026-04-27 03:38 | -11.94390 | -77.15281 | 1469 ft | 137 kts | 154° |
| 2026-04-27 03:38 | -11.95244 | -77.14859 | 1302 ft | 136 kts | 154° |
| 2026-04-27 03:38 | -11.96100 | -77.14436 | 1133 ft | 135 kts | 155° |
| 2026-04-27 03:38 | -11.96943 | -77.14020 | 959 ft | 133 kts | 155° |
| 2026-04-27 03:39 | -11.97781 | -77.13602 | 781 ft | 132 kts | 154° |
| 2026-04-27 03:39 | -11.98593 | -77.13203 | 634 ft | 130 kts | 156° |
| 2026-04-27 03:39 | -11.99409 | -77.12804 | 472 ft | 129 kts | 155° |
| 2026-04-27 03:39 | -12.00219 | -77.12399 | 278 ft | 127 kts | 155° |
| 2026-04-27 03:40 | -12.01024 | -77.12003 | 141 ft | 127 kts | 156° |
| 2026-04-27 03:40 | -12.01588 | -77.11726 | 131 ft | 44 kts | 147° |
| 2026-04-27 03:40 | -12.01710 | -77.11600 | 131 ft | 3 kts | 128° |
| 2026-04-27 03:40 | -12.01727 | -77.11578 | 131 ft | 4 kts | 129° |
| 2026-04-27 03:41 | -12.01747 | -77.11553 | 131 ft | 0 kts | 129° |
| 2026-04-27 03:41 | -12.01749 | -77.11551 | 131 ft | 0 kts | 129° |
| 2026-04-27 03:41 | -12.01750 | -77.11549 | 131 ft | 0 kts | 129° |
| 2026-04-27 03:41 | -12.01752 | -77.11546 | 131 ft | 0 kts | 129° |
| 2026-04-27 03:42 | -12.01758 | -77.11539 | 131 ft | 3 kts | 129° |
| 2026-04-27 03:42 | -12.01775 | -77.11517 | 131 ft | 4 kts | 129° |
| 2026-04-27 03:42 | -12.01795 | -77.11489 | 131 ft | 5 kts | 124° |
| 2026-04-27 03:43 | -12.01819 | -77.11453 | 131 ft | 6 kts | 123° |
| 2026-04-27 03:43 | -12.01846 | -77.11409 | 131 ft | 7 kts | 122° |
| 2026-04-27 03:43 | -12.01877 | -77.11359 | 131 ft | 8 kts | 120° |
| 2026-04-27 03:43 | -12.01908 | -77.11300 | 131 ft | 9 kts | 117° |
| 2026-04-27 03:44 | -12.01943 | -77.11234 | 131 ft | 10 kts | 124° |
| 2026-04-27 03:44 | -12.02001 | -77.11186 | 131 ft | 11 kts | 151° |
| 2026-04-27 03:44 | -12.02074 | -77.11148 | 131 ft | 11 kts | 154° |
| 2026-04-27 03:44 | -12.02149 | -77.11112 | 131 ft | 12 kts | 155° |
| 2026-04-27 03:45 | -12.02230 | -77.11076 | 131 ft | 12 kts | 156° |
| 2026-04-27 03:45 | -12.02306 | -77.11034 | 131 ft | 10 kts | 136° |
| 2026-04-27 03:45 | -12.02314 | -77.10973 | 131 ft | 9 kts | 69° |
| 2026-04-27 03:45 | -12.02308 | -77.10958 | 131 ft | 0 kts | 67° |